WetterOnline ( https://www.wetteronline.de )

Wetter aktuell Isny

Aktuelles Wetter: Leutkirch-Herlazhofen (671m)

6-stündlich | Neueste Meldungen
Ortszeit Temperatur Wetter
Di, 22.09. 14:00 21.0° C leicht bewölkt
Di, 22.09. 8:00 12.1° C bedeckt
Di, 22.09. 2:00 10.9° C leicht bewölkt
Mo, 21.09. 20:00 18.1° C bedeckt
Mo, 21.09. 14:00 20.4° C leicht bewölkt
Mo, 21.09. 8:00 10.5° C wolkenlos
Mo, 21.09. 2:00 12.0° C bewölkt
So, 20.09. 20:00 17.4° C wolkig
Ortszeit Temperatur Wetter
Di, 22.09. 17:30 21.3° C wolkig
Di, 22.09. 17:20 21.3° C wolkig
Di, 22.09. 17:10 21.0° C wolkig
Di, 22.09. 17:00 21.7° C wolkig
Di, 22.09. 16:50 21.7° C wolkig
Di, 22.09. 16:40 21.2° C bewölkt
Di, 22.09. 16:30 21.2° C wolkig
Di, 22.09. 16:00 21.1° C wolkig
Ortszeit Relative Feuchte Sichtweite
Di, 22.09. 14:00 66% 25 km
Di, 22.09. 8:00 97% 13 km
Di, 22.09. 2:00 95% 35 km
Mo, 21.09. 20:00 77% 30 km
Mo, 21.09. 14:00 65% 30 km
Mo, 21.09. 8:00 98% 3.1 km
Mo, 21.09. 2:00 98% 4.5 km
So, 20.09. 20:00 78% 35 km
Ortszeit Relative Feuchte Sichtweite
Di, 22.09. 17:30 65% 26 km
Di, 22.09. 17:20 65% -
Di, 22.09. 17:10 66% -
Di, 22.09. 17:00 65% 30 km
Di, 22.09. 16:50 65% -
Di, 22.09. 16:40 65% -
Di, 22.09. 16:30 63% 35 km
Di, 22.09. 16:00 64% 35 km
Ortszeit Niederschlagsmenge Niederschlagsart
Di, 22.09. 14:00 0.0 l/m2 in 6 Std. -
Di, 22.09. 8:00 1 l/m2 in 12 Std. -
Di, 22.09. 2:00 1 l/m2 in 6 Std. Regen
Mo, 21.09. 20:00 0.0 l/m2 in 12 Std. -
Mo, 21.09. 14:00 0.0 l/m2 in 6 Std. -
Mo, 21.09. 8:00 0.0 l/m2 in 12 Std. -
Mo, 21.09. 2:00 0.0 l/m2 in 6 Std. -
So, 20.09. 20:00 0.0 l/m2 in 12 Std. -
Ortszeit Niederschlagsmenge Niederschlagsart
Di, 22.09. 17:30 0.0 l/m2 in 1 Std. -
Di, 22.09. 17:20 keine Meldung -
Di, 22.09. 17:10 keine Meldung -
Di, 22.09. 17:00 0.0 l/m2 in 1 Std. -
Di, 22.09. 16:50 keine Meldung -
Di, 22.09. 16:40 keine Meldung -
Di, 22.09. 16:30 0.0 l/m2 in 1 Std. -
Di, 22.09. 16:00 0.0 l/m2 in 1 Std. -
Ortszeit Stärke Spitze Richtung
km/h Bft. km/h Grad Sektor
Di, 22.09. 14:00 7 2 18 240° SW
Di, 22.09. 8:00 4 1 14 90° O
Di, 22.09. 2:00 7 2 22 150° SO
Mo, 21.09. 20:00 9 2 19 150° SO
Mo, 21.09. 14:00 6 1 20 310° NW
Mo, 21.09. 8:00 4 1 7 140° SO
Mo, 21.09. 2:00 0 0 14 - -
So, 20.09. 20:00 4 1 25 80° O
Ortszeit Stärke Spitze Richtung
km/h Bft. km/h Grad Sektor
Di, 22.09. 17:30 6 1 9 300° NW
Di, 22.09. 17:20 6 1 - 300° NW
Di, 22.09. 17:10 6 1 - 300° NW
Di, 22.09. 17:00 4 1 7 220° SW
Di, 22.09. 16:50 4 1 - 220° SW
Di, 22.09. 16:40 4 1 - 230° SW
Di, 22.09. 16:30 4 1 7 330° NW
Di, 22.09. 16:00 4 1 7 120° SO
Ortszeit Untergrenze Bedeckung Gattung
total tief tief mittel hoch
Di, 22.09. 14:00 1800 m 3/8 3/8 - - -
Di, 22.09. 8:00 3600 m 8/8 8/8 - - -
Di, 22.09. 2:00 3600 m 4/8 4/8 - - -
Mo, 21.09. 20:00 3000 m 8/8 8/8 - - -
Mo, 21.09. 14:00 660 m 2/8 2/8 - - -
Mo, 21.09. 8:00 3000 m 0/8 0/8 - - -
Mo, 21.09. 2:00 3600 m 7/8 7/8 - - -
So, 20.09. 20:00 1320 m 8/8 1/8 - - -
Ortszeit Bedeckungsgrad in Achtel und Wolkenuntergrenze
Di, 22.09. 17:30 1(810m) 8(3900m)
Di, 22.09. 17:20 1(810m) 8(3900m)
Di, 22.09. 17:10 1(810m) 8(3600m)
Di, 22.09. 17:00 3(870m) 7(3600m)
Di, 22.09. 16:50 3(870m) 7(3600m)
Di, 22.09. 16:40 5(870m) 6(1200m) 7(3600m)
Di, 22.09. 16:30 3(870m) 8(3600m)
Di, 22.09. 16:00 3(1050m) 5(1800m) 7(3600m)
Ortszeit Luftdruck NN (hPa) Tendenz (hPa in 3 Std.)
Di, 22.09. 14:00 1011 - 1,3
Di, 22.09. 8:00 1015 - 0,2
Di, 22.09. 2:00 1016 - 0,5
Mo, 21.09. 20:00 1014 + 0,3
Mo, 21.09. 14:00 1014 - 0,6
Mo, 21.09. 8:00 1017 + 0,3
Mo, 21.09. 2:00 1016 + 0,2
So, 20.09. 20:00 1014 + 1,2
Ortszeit Luftdruck NN (hPa) Tendenz (hPa in 3 Std.)
Di, 22.09. 17:30 1009 - 1,7
Di, 22.09. 17:20 1009 keine Meldung
Di, 22.09. 17:10 1009 keine Meldung
Di, 22.09. 17:00 1009 - 1,7
Di, 22.09. 16:50 1009 keine Meldung
Di, 22.09. 16:40 1009 keine Meldung
Di, 22.09. 16:30 1009 - 1,4
Di, 22.09. 16:00 1010 - 1,4
Ortszeit Schneehöhe (cm)
Di, 22.09. 14:00 0
Di, 22.09. 8:00 0
Di, 22.09. 2:00 0
Mo, 21.09. 20:00 0
Mo, 21.09. 14:00 0
Mo, 21.09. 8:00 0
Mo, 21.09. 2:00 0
So, 20.09. 20:00 0
Ortszeit Schneehöhe (cm)
Di, 22.09. 17:30 0
Di, 22.09. 17:20 0
Di, 22.09. 17:10 0
Di, 22.09. 17:00 0
Di, 22.09. 16:50 0
Di, 22.09. 16:40 0
Di, 22.09. 16:30 0
Di, 22.09. 16:00 0
Link zu dieser Seite / Seite empfehlen

Das Wetter in ...